Time;durP1;ratioP1;P1;durP2;ratioP2;P2;SDS_P1;SDS_P2;PMS_P1;PMS_P2;Temp;Humidity;BMP_temperature;BMP_pressure;BME280_temperature;BME280_humidity;BME280_pressure;Samples;Min_cycle;Max_cycle;Signal;HPM_P1;HPM_P2
2022/03/02 00:01:44;;;;;;;21.27;17.30;;;;;;;;;;5125604;27;20057;-66
2022/03/02 00:04:10;;;;;;;19.58;16.55;;;;;;;;;;5126439;27;20031;-67
2022/03/02 00:06:35;;;;;;;18.45;15.07;;;;;;;;;;5127382;27;20447;-67
2022/03/02 00:09:01;;;;;;;24.70;17.23;;;;;;;;;;5131646;27;20501;-65
2022/03/02 00:11:30;;;;;;;21.75;15.85;;;;;;;;;;5128896;27;20034;-66
2022/03/02 00:13:58;;;;;;;23.45;16.33;;;;;;;;;;5124291;27;20031;-66
2022/03/02 00:16:24;;;;;;;23.80;17.10;;;;;;;;;;5128817;27;20533;-66
2022/03/02 00:18:50;;;;;;;26.45;17.27;;;;;;;;;;5127248;27;20126;-66
2022/03/02 00:21:16;;;;;;;21.58;17.20;;;;;;;;;;5113562;27;20324;-67
2022/03/02 00:23:41;;;;;;;28.60;19.40;;;;;;;;;;5107512;27;20413;-65
2022/03/02 00:26:08;;;;;;;22.27;17.63;;;;;;;;;;5122266;27;20492;-67
2022/03/02 00:28:33;;;;;;;28.40;17.98;;;;;;;;;;5124584;27;20027;-67
2022/03/02 00:30:59;;;;;;;18.88;15.77;;;;;;;;;;5126238;27;20197;-65
2022/03/02 00:33:25;;;;;;;18.67;14.57;;;;;;;;;;5108804;27;20028;-65
2022/03/02 00:35:50;;;;;;;17.25;15.55;;;;;;;;;;5127046;27;20069;-67
2022/03/02 00:38:16;;;;;;;22.33;15.55;;;;;;;;;;5125672;27;20071;-67
2022/03/02 00:40:42;;;;;;;21.92;16.50;;;;;;;;;;5128543;27;20473;-66
2022/03/02 00:43:08;;;;;;;22.70;16.83;;;;;;;;;;5123469;27;20019;-66
2022/03/02 00:45:34;;;;;;;16.52;14.65;;;;;;;;;;5123904;27;20034;-66
2022/03/02 00:48:01;;;;;;;26.63;17.10;;;;;;;;;;5129106;27;20464;-67
2022/03/02 00:50:28;;;;;;;25.17;16.58;;;;;;;;;;5119592;27;20030;-67
2022/03/02 00:52:55;;;;;;;23.83;16.73;;;;;;;;;;5124773;27;20106;-67
2022/03/02 00:55:21;;;;;;;24.48;18.73;;;;;;;;;;5128526;27;20038;-67
2022/03/02 00:57:47;;;;;;;22.92;17.50;;;;;;;;;;5121595;27;20543;-68
2022/03/02 01:00:14;;;;;;;26.85;17.50;;;;;;;;;;5122770;27;20126;-67
2022/03/02 01:02:40;;;;;;;23.25;18.30;;;;;;;;;;5122636;27;20573;-66
2022/03/02 01:05:07;;;;;;;23.50;16.90;;;;;;;;;;5142283;27;20042;-68
2022/03/02 01:07:34;;;;;;;19.95;17.05;;;;;;;;;;5115470;27;20035;-67
2022/03/02 01:10:00;;;;;;;22.30;16.58;;;;;;;;;;5131486;27;20027;-67
2022/03/02 01:12:26;;;;;;;18.08;15.25;;;;;;;;;;5128216;27;20039;-67
2022/03/02 01:14:52;;;;;;;18.83;15.60;;;;;;;;;;5120167;27;20022;-67
2022/03/02 01:17:19;;;;;;;21.17;15.88;;;;;;;;;;5125370;27;20059;-67
2022/03/02 01:19:44;;;;;;;21.58;16.63;;;;;;;;;;5124297;27;20036;-67
2022/03/02 01:22:10;;;;;;;21.58;16.70;;;;;;;;;;5121236;27;20492;-66
2022/03/02 01:24:36;;;;;;;19.83;16.38;;;;;;;;;;5127991;27;20259;-67
2022/03/02 01:27:02;;;;;;;19.85;16.48;;;;;;;;;;5126181;27;20035;-67
2022/03/02 01:29:30;;;;;;;21.55;16.33;;;;;;;;;;5128569;27;20112;-67
2022/03/02 01:31:56;;;;;;;26.52;17.00;;;;;;;;;;5126258;27;20035;-67
2022/03/02 01:34:22;;;;;;;21.17;16.08;;;;;;;;;;5134751;27;20370;-66
2022/03/02 01:36:47;;;;;;;19.88;16.00;;;;;;;;;;5120255;27;20092;-67
2022/03/02 01:39:13;;;;;;;19.88;15.75;;;;;;;;;;5119672;27;20036;-67
2022/03/02 01:41:39;;;;;;;20.38;16.15;;;;;;;;;;5135505;27;20394;-67
2022/03/02 01:44:05;;;;;;;20.05;16.33;;;;;;;;;;5128017;27;20340;-67
2022/03/02 01:46:31;;;;;;;22.52;17.92;;;;;;;;;;5117476;27;20043;-66
2022/03/02 01:48:57;;;;;;;19.23;16.88;;;;;;;;;;5132673;27;20408;-67
2022/03/02 01:51:23;;;;;;;25.17;17.23;;;;;;;;;;5136774;27;20038;-67
2022/03/02 01:53:49;;;;;;;21.80;17.45;;;;;;;;;;5122100;27;20050;-67
2022/03/02 01:56:16;;;;;;;21.98;16.52;;;;;;;;;;5133348;27;20801;-67
2022/03/02 01:58:44;;;;;;;20.90;17.08;;;;;;;;;;5113466;27;20045;-67
2022/03/02 02:01:11;;;;;;;19.30;16.38;;;;;;;;;;5109420;27;20116;-66
2022/03/02 02:03:38;;;;;;;23.08;16.77;;;;;;;;;;5120960;27;20055;-66
2022/03/02 02:06:04;;;;;;;25.48;17.25;;;;;;;;;;5115735;27;20412;-68
2022/03/02 02:08:31;;;;;;;19.23;16.55;;;;;;;;;;5130241;27;20423;-67
2022/03/02 02:10:58;;;;;;;23.13;16.92;;;;;;;;;;5107584;27;20053;-67
2022/03/02 02:13:25;;;;;;;17.98;16.10;;;;;;;;;;5106857;27;20586;-68
2022/03/02 02:15:53;;;;;;;11.35;10.52;;;;;;;;;;5125923;27;20482;-67
2022/03/02 02:18:18;;;;;;;17.38;14.95;;;;;;;;;;5102867;27;20031;-67
2022/03/02 02:20:45;;;;;;;17.23;15.43;;;;;;;;;;5129145;27;20098;-66
2022/03/02 02:23:10;;;;;;;23.77;16.95;;;;;;;;;;5115706;27;20108;-65
2022/03/02 02:25:36;;;;;;;22.55;15.32;;;;;;;;;;5130293;27;20481;-67
2022/03/02 02:28:01;;;;;;;26.23;16.55;;;;;;;;;;5123042;27;20042;-67
2022/03/02 02:30:29;;;;;;;24.73;16.27;;;;;;;;;;5117932;27;20038;-66
2022/03/02 02:32:54;;;;;;;25.38;17.05;;;;;;;;;;5139541;27;20038;-68
2022/03/02 02:35:20;;;;;;;20.58;15.80;;;;;;;;;;5081819;28;20035;-66
2022/03/02 02:37:46;;;;;;;24.30;16.88;;;;;;;;;;5121260;27;20775;-67
2022/03/02 02:40:17;;;;;;;26.30;15.90;;;;;;;;;;5134211;27;20043;-68
2022/03/02 02:42:45;;;;;;;18.38;16.10;;;;;;;;;;5133572;27;20040;-66
2022/03/02 02:45:17;;;;;;;17.95;15.75;;;;;;;;;;5116701;27;20034;-68
2022/03/02 02:47:55;;;;;;;16.73;14.98;;;;;;;;;;5127211;27;20036;-67
2022/03/02 02:50:27;;;;;;;21.33;15.38;;;;;;;;;;5123803;27;20035;-67
2022/03/02 02:52:53;;;;;;;20.30;16.35;;;;;;;;;;5095448;27;20141;-67
2022/03/02 02:55:21;;;;;;;19.45;17.02;;;;;;;;;;5131606;27;20554;-68
2022/03/02 02:57:47;;;;;;;17.75;15.88;;;;;;;;;;5124944;27;20038;-68
2022/03/02 03:00:16;;;;;;;22.83;16.63;;;;;;;;;;5120013;27;20033;-67
2022/03/02 03:02:45;;;;;;;20.80;16.45;;;;;;;;;;5133662;27;20216;-69
2022/03/02 03:05:16;;;;;;;23.53;17.33;;;;;;;;;;5132822;27;20038;-67
2022/03/02 03:07:43;;;;;;;23.60;17.35;;;;;;;;;;5122603;27;20069;-67
2022/03/02 03:10:10;;;;;;;20.42;16.55;;;;;;;;;;5132346;27;20096;-67
2022/03/02 03:12:36;;;;;;;29.17;18.95;;;;;;;;;;5126467;27;20034;-67
2022/03/02 03:15:04;;;;;;;26.08;18.23;;;;;;;;;;5111247;27;20034;-67
2022/03/02 03:17:30;;;;;;;22.65;17.45;;;;;;;;;;5119853;27;20467;-67
2022/03/02 03:19:55;;;;;;;22.20;17.52;;;;;;;;;;5126338;27;20056;-66
2022/03/02 03:22:21;;;;;;;23.20;17.67;;;;;;;;;;5123679;27;20030;-67
2022/03/02 03:24:46;;;;;;;20.88;16.33;;;;;;;;;;5130992;27;20038;-67
2022/03/02 03:27:12;;;;;;;19.98;16.02;;;;;;;;;;5103074;27;20375;-66
2022/03/02 03:29:37;;;;;;;27.08;16.33;;;;;;;;;;5121027;27;20506;-67
2022/03/02 03:32:04;;;;;;;29.48;18.83;;;;;;;;;;5125157;27;20115;-66
2022/03/02 03:34:30;;;;;;;24.20;17.38;;;;;;;;;;5112810;27;20031;-67
2022/03/02 03:36:56;;;;;;;30.48;17.98;;;;;;;;;;5124546;27;20046;-66
2022/03/02 03:39:21;;;;;;;26.23;17.73;;;;;;;;;;5115680;27;20478;-68
2022/03/02 03:41:47;;;;;;;23.65;17.45;;;;;;;;;;5127984;27;20034;-66
2022/03/02 03:44:12;;;;;;;20.88;17.38;;;;;;;;;;5115040;27;20124;-66
2022/03/02 03:46:38;;;;;;;22.08;18.35;;;;;;;;;;5124529;27;20029;-66
2022/03/02 03:49:04;;;;;;;22.05;17.40;;;;;;;;;;5109327;27;20054;-67
2022/03/02 03:51:29;;;;;;;20.60;17.98;;;;;;;;;;5124333;27;20106;-66
2022/03/02 03:53:55;;;;;;;24.60;16.75;;;;;;;;;;5110264;27;20045;-66
2022/03/02 03:56:20;;;;;;;24.02;17.45;;;;;;;;;;5111496;27;20035;-67
2022/03/02 03:58:46;;;;;;;18.80;16.30;;;;;;;;;;5119965;27;20037;-67
2022/03/02 04:01:12;;;;;;;24.88;16.55;;;;;;;;;;5126869;27;20690;-66
2022/03/02 04:03:38;;;;;;;19.05;15.55;;;;;;;;;;5128640;27;20058;-66
2022/03/02 04:06:04;;;;;;;18.20;16.35;;;;;;;;;;5124322;27;20030;-66
2022/03/02 04:08:30;;;;;;;18.70;15.90;;;;;;;;;;5106501;27;20489;-67
2022/03/02 04:10:56;;;;;;;15.05;13.80;;;;;;;;;;5131330;27;20058;-66
2022/03/02 04:13:21;;;;;;;20.90;16.92;;;;;;;;;;5096434;27;20042;-67
2022/03/02 04:15:47;;;;;;;28.33;20.20;;;;;;;;;;5125084;27;20122;-68
2022/03/02 04:18:13;;;;;;;39.67;21.20;;;;;;;;;;5119343;27;20031;-67
2022/03/02 04:20:38;;;;;;;27.48;19.50;;;;;;;;;;5120980;27;20762;-67
2022/03/02 04:23:05;;;;;;;18.83;16.48;;;;;;;;;;5117777;27;20054;-67
2022/03/02 04:25:30;;;;;;;23.83;15.90;;;;;;;;;;5113255;27;20067;-66
2022/03/02 04:27:56;;;;;;;16.00;14.45;;;;;;;;;;5132889;27;20070;-66
2022/03/02 04:30:23;;;;;;;20.70;16.08;;;;;;;;;;5127845;27;20042;-66
2022/03/02 04:32:48;;;;;;;19.40;15.90;;;;;;;;;;5110032;27;20063;-66
2022/03/02 04:35:14;;;;;;;20.02;16.17;;;;;;;;;;5113940;27;20090;-67
2022/03/02 04:37:41;;;;;;;21.02;15.50;;;;;;;;;;5123890;27;20036;-66
2022/03/02 04:40:10;;;;;;;15.68;14.05;;;;;;;;;;5135652;27;20038;-66
2022/03/02 04:42:36;;;;;;;19.08;16.10;;;;;;;;;;5124137;27;20031;-68
2022/03/02 04:45:03;;;;;;;22.20;17.50;;;;;;;;;;5129987;27;20038;-67
2022/03/02 04:47:28;;;;;;;19.25;15.88;;;;;;;;;;5123086;27;20035;-67
2022/03/02 04:49:54;;;;;;;18.73;16.08;;;;;;;;;;5132254;27;20620;-68
2022/03/02 04:52:20;;;;;;;16.67;14.93;;;;;;;;;;5124455;27;20064;-67
2022/03/02 04:57:30;;;;;;;18.10;15.57;;;;;;;;;;5122456;27;20107;-66
2022/03/02 04:59:55;;;;;;;18.17;13.27;;;;;;;;;;5129426;27;20436;-65
2022/03/02 05:02:21;;;;;;;16.75;15.05;;;;;;;;;;5118750;27;20034;-66
2022/03/02 05:04:47;;;;;;;20.85;16.27;;;;;;;;;;5120584;27;20394;-66
2022/03/02 05:07:13;;;;;;;18.05;16.10;;;;;;;;;;5122205;27;20118;-68
2022/03/02 05:09:38;;;;;;;19.85;15.50;;;;;;;;;;5124569;27;20470;-67
2022/03/02 05:12:04;;;;;;;18.20;15.13;;;;;;;;;;5106302;27;20125;-67
2022/03/02 05:14:30;;;;;;;17.42;15.60;;;;;;;;;;5132544;27;20167;-67
2022/03/02 05:16:56;;;;;;;21.25;16.10;;;;;;;;;;5121786;27;20036;-66
2022/03/02 05:19:22;;;;;;;18.25;15.55;;;;;;;;;;5101433;28;20028;-65
2022/03/02 05:21:47;;;;;;;18.20;16.23;;;;;;;;;;5098026;27;20037;-68
2022/03/02 05:24:14;;;;;;;22.13;18.42;;;;;;;;;;5125965;27;20038;-66
2022/03/02 05:26:40;;;;;;;16.02;14.40;;;;;;;;;;5101353;27;20035;-66
2022/03/02 05:29:06;;;;;;;17.65;16.15;;;;;;;;;;5119429;27;20051;-66
2022/03/02 05:31:32;;;;;;;15.60;14.13;;;;;;;;;;5121697;27;20432;-66
2022/03/02 05:33:57;;;;;;;18.50;16.15;;;;;;;;;;5108623;27;20478;-66
2022/03/02 05:36:24;;;;;;;24.13;16.95;;;;;;;;;;5103543;28;20048;-66
2022/03/02 05:38:49;;;;;;;19.55;16.42;;;;;;;;;;5108848;27;20112;-67
2022/03/02 05:41:15;;;;;;;16.98;15.13;;;;;;;;;;5121904;27;20084;-66
2022/03/02 05:43:41;;;;;;;24.95;17.80;;;;;;;;;;5123630;27;20027;-67
2022/03/02 05:46:06;;;;;;;23.90;18.42;;;;;;;;;;5116554;27;20065;-67
2022/03/02 05:48:32;;;;;;;21.42;15.27;;;;;;;;;;5122619;27;20035;-67
2022/03/02 05:50:58;;;;;;;24.27;18.13;;;;;;;;;;5133799;27;20409;-67
2022/03/02 05:53:23;;;;;;;26.23;17.25;;;;;;;;;;5107443;28;20083;-67
2022/03/02 05:55:49;;;;;;;23.95;18.45;;;;;;;;;;5115820;27;20038;-66
2022/03/02 05:58:15;;;;;;;25.05;17.75;;;;;;;;;;5119531;27;20063;-67
2022/03/02 06:00:42;;;;;;;21.63;16.73;;;;;;;;;;5108979;28;20040;-66
2022/03/02 06:03:08;;;;;;;16.85;15.25;;;;;;;;;;5107758;28;20110;-65
2022/03/02 06:05:34;;;;;;;15.27;13.70;;;;;;;;;;5123761;27;20085;-66
2022/03/02 06:08:00;;;;;;;17.45;13.75;;;;;;;;;;5110375;27;20031;-67
2022/03/02 06:10:26;;;;;;;18.00;15.77;;;;;;;;;;5112104;28;20035;-65
2022/03/02 06:12:52;;;;;;;15.82;14.32;;;;;;;;;;5106478;27;20039;-67
2022/03/02 06:15:17;;;;;;;12.95;12.00;;;;;;;;;;5094140;28;20046;-67
2022/03/02 06:17:43;;;;;;;20.52;16.52;;;;;;;;;;5091340;28;20426;-66
2022/03/02 06:20:10;;;;;;;19.85;15.00;;;;;;;;;;5120348;27;20379;-66
2022/03/02 06:22:36;;;;;;;22.67;17.30;;;;;;;;;;5126862;27;20474;-66
2022/03/02 06:25:03;;;;;;;26.52;18.55;;;;;;;;;;5108806;28;20505;-66
2022/03/02 06:27:28;;;;;;;24.40;18.05;;;;;;;;;;5111664;27;20038;-67
2022/03/02 06:29:54;;;;;;;22.65;17.45;;;;;;;;;;5112734;27;20032;-66
2022/03/02 06:32:19;;;;;;;19.50;16.05;;;;;;;;;;5133043;27;20038;-67
2022/03/02 06:34:45;;;;;;;21.63;17.23;;;;;;;;;;5111749;27;20039;-66
2022/03/02 06:37:11;;;;;;;16.48;14.30;;;;;;;;;;5093387;28;20071;-67
2022/03/02 06:39:36;;;;;;;19.42;15.70;;;;;;;;;;5094711;27;20054;-66
2022/03/02 06:42:12;;;;;;;27.90;19.35;;;;;;;;;;5117208;27;20114;-66
2022/03/02 06:44:49;;;;;;;18.60;16.67;;;;;;;;;;5111005;27;20036;-65
2022/03/02 06:47:18;;;;;;;15.80;14.25;;;;;;;;;;5119840;27;20119;-66
2022/03/02 06:50:12;;;;;;;21.02;16.60;;;;;;;;;;5126634;27;20398;-65
2022/03/02 06:52:41;;;;;;;18.70;15.35;;;;;;;;;;5126140;27;20035;-66
2022/03/02 06:55:13;;;;;;;21.58;16.63;;;;;;;;;;5132561;27;20246;-65
2022/03/02 06:57:40;;;;;;;18.80;16.08;;;;;;;;;;5111350;28;20110;-67
2022/03/02 07:00:08;;;;;;;21.52;17.38;;;;;;;;;;5118104;27;20099;-65
2022/03/02 07:02:46;;;;;;;23.67;18.13;;;;;;;;;;5100894;27;20130;-65
2022/03/02 07:05:12;;;;;;;20.70;17.88;;;;;;;;;;5114607;27;20044;-65
2022/03/02 07:07:38;;;;;;;28.35;19.13;;;;;;;;;;5110870;28;20043;-65
2022/03/02 07:10:06;;;;;;;28.05;19.38;;;;;;;;;;5123972;27;20118;-65
2022/03/02 07:12:32;;;;;;;22.88;18.42;;;;;;;;;;5126742;27;20067;-67
2022/03/02 07:14:57;;;;;;;30.13;18.58;;;;;;;;;;5092374;28;20373;-67
2022/03/02 07:17:26;;;;;;;23.90;18.23;;;;;;;;;;5110798;27;20114;-66
2022/03/02 07:19:52;;;;;;;21.23;17.08;;;;;;;;;;5123627;27;20081;-67
2022/03/02 07:22:21;;;;;;;29.20;19.65;;;;;;;;;;5129492;27;20347;-67
2022/03/02 07:25:03;;;;;;;17.95;15.98;;;;;;;;;;5092406;28;20038;-65
2022/03/02 07:27:30;;;;;;;16.33;14.77;;;;;;;;;;5110868;27;20035;-66
2022/03/02 07:29:55;;;;;;;27.30;19.67;;;;;;;;;;5122119;27;20031;-66
2022/03/02 07:32:26;;;;;;;28.48;21.55;;;;;;;;;;5121238;27;20075;-66
2022/03/02 07:34:55;;;;;;;29.58;21.23;;;;;;;;;;5110678;27;20054;-67
2022/03/02 07:37:22;;;;;;;23.58;18.15;;;;;;;;;;5099373;27;20035;-66
2022/03/02 07:39:49;;;;;;;23.98;18.92;;;;;;;;;;5116274;27;20402;-67
2022/03/02 07:42:15;;;;;;;21.92;19.25;;;;;;;;;;5110120;27;20035;-66
2022/03/02 07:44:44;;;;;;;27.52;19.10;;;;;;;;;;5110433;28;20092;-67
2022/03/02 07:47:09;;;;;;;26.30;18.70;;;;;;;;;;5120095;27;20084;-67
2022/03/02 07:49:35;;;;;;;29.48;19.15;;;;;;;;;;5124511;27;20040;-65
2022/03/02 07:52:05;;;;;;;26.98;20.15;;;;;;;;;;5117687;27;20050;-67
2022/03/02 07:54:35;;;;;;;32.55;20.80;;;;;;;;;;5109970;27;20049;-67
2022/03/02 07:57:01;;;;;;;28.83;20.55;;;;;;;;;;5117795;27;20412;-67
2022/03/02 07:59:34;;;;;;;26.30;19.50;;;;;;;;;;5123501;27;20248;-67
2022/03/02 08:02:00;;;;;;;23.50;18.48;;;;;;;;;;5109941;27;20036;-66
2022/03/02 08:04:27;;;;;;;23.13;18.02;;;;;;;;;;5099520;22;20048;-67
2022/03/02 08:06:53;;;;;;;23.13;17.10;;;;;;;;;;5072882;28;20040;-68
2022/03/02 08:09:18;;;;;;;21.30;17.67;;;;;;;;;;5068731;28;20445;-66
2022/03/02 08:11:44;;;;;;;28.67;18.98;;;;;;;;;;5069017;28;20498;-68
2022/03/02 08:14:10;;;;;;;23.02;18.75;;;;;;;;;;5066580;28;20044;-69
2022/03/02 08:16:35;;;;;;;23.08;19.50;;;;;;;;;;5077659;28;20036;-69
2022/03/02 08:19:02;;;;;;;27.02;19.60;;;;;;;;;;5076523;28;20543;-70
2022/03/02 08:21:32;;;;;;;26.15;19.50;;;;;;;;;;5075910;28;20550;-68
2022/03/02 08:24:01;;;;;;;23.48;18.77;;;;;;;;;;5064683;28;20137;-68
2022/03/02 08:26:32;;;;;;;25.35;20.08;;;;;;;;;;5068740;28;20064;-68
2022/03/02 08:29:02;;;;;;;25.95;20.35;;;;;;;;;;5068887;28;20076;-69
2022/03/02 08:31:29;;;;;;;23.48;18.55;;;;;;;;;;5074177;28;20032;-68
2022/03/02 08:33:55;;;;;;;24.27;18.15;;;;;;;;;;5068854;28;20044;-68
2022/03/02 08:36:23;;;;;;;19.50;17.27;;;;;;;;;;5068267;28;20028;-68
2022/03/02 08:38:52;;;;;;;28.55;20.98;;;;;;;;;;5061936;28;20035;-68
2022/03/02 08:41:19;;;;;;;27.83;20.95;;;;;;;;;;5072371;28;20502;-68
2022/03/02 08:43:46;;;;;;;26.55;20.77;;;;;;;;;;5071953;28;20036;-68
2022/03/02 08:46:12;;;;;;;28.35;19.95;;;;;;;;;;5067976;28;20119;-70
2022/03/02 08:48:37;;;;;;;20.10;17.45;;;;;;;;;;5067895;28;20493;-68
2022/03/02 08:51:04;;;;;;;21.10;17.13;;;;;;;;;;5063157;28;20044;-68
2022/03/02 08:53:31;;;;;;;21.08;17.88;;;;;;;;;;5075912;28;20138;-68
2022/03/02 08:56:00;;;;;;;21.27;19.00;;;;;;;;;;5080150;28;20121;-69
2022/03/02 08:58:29;;;;;;;25.60;20.10;;;;;;;;;;5034164;28;20029;-68
2022/03/02 09:00:58;;;;;;;24.27;19.85;;;;;;;;;;5060194;28;20499;-69
2022/03/02 09:03:25;;;;;;;22.52;20.23;;;;;;;;;;5069427;28;20036;-67
2022/03/02 09:05:52;;;;;;;22.50;19.85;;;;;;;;;;5068365;28;20036;-68
2022/03/02 09:08:18;;;;;;;23.48;19.63;;;;;;;;;;5067729;28;20108;-68
2022/03/02 09:10:44;;;;;;;27.15;22.00;;;;;;;;;;5078975;28;20119;-70
2022/03/02 09:13:11;;;;;;;21.17;19.08;;;;;;;;;;5068605;28;20490;-69
2022/03/02 09:15:40;;;;;;;31.77;22.80;;;;;;;;;;5068291;28;20106;-68
2022/03/02 09:18:06;;;;;;;26.27;20.77;;;;;;;;;;5069038;28;20032;-69
2022/03/02 09:20:31;;;;;;;21.30;19.08;;;;;;;;;;5085017;28;20028;-70
2022/03/02 09:23:01;;;;;;;25.00;19.67;;;;;;;;;;5088654;28;20046;-69
2022/03/02 09:25:28;;;;;;;;;;;;;;;;;;5087094;28;20070;-69
2022/03/02 09:27:56;;;;;;;24.15;18.83;;;;;;;;;;5079910;28;19916;-70
2022/03/02 09:30:22;;;;;;;21.45;19.20;;;;;;;;;;5074427;28;20403;-70
2022/03/02 09:32:52;;;;;;;20.15;18.05;;;;;;;;;;5068945;28;20037;-69
2022/03/02 09:35:19;;;;;;;20.88;18.67;;;;;;;;;;5072921;28;20032;-70
2022/03/02 09:37:53;;;;;;;22.13;17.90;;;;;;;;;;5087049;28;20089;-70
2022/03/02 09:40:28;;;;;;;20.88;17.92;;;;;;;;;;5067866;28;20119;-69
2022/03/02 09:42:57;;;;;;;22.02;18.48;;;;;;;;;;5066152;28;20158;-69
2022/03/02 09:45:26;;;;;;;20.23;18.08;;;;;;;;;;5066846;28;20044;-69
2022/03/02 09:48:03;;;;;;;20.65;17.88;;;;;;;;;;5073100;28;20040;-69
2022/03/02 09:50:35;;;;;;;22.60;18.48;;;;;;;;;;5078632;28;20032;-69
2022/03/02 09:53:05;;;;;;;19.30;17.58;;;;;;;;;;5073364;28;20029;-69
2022/03/02 09:55:31;;;;;;;19.80;17.77;;;;;;;;;;5075904;28;20032;-69
2022/03/02 09:57:59;;;;;;;20.65;18.55;;;;;;;;;;5070635;28;20124;-69
2022/03/02 10:00:27;;;;;;;23.48;17.95;;;;;;;;;;5079910;28;20487;-69
2022/03/02 10:02:55;;;;;;;22.00;19.77;;;;;;;;;;5072369;28;20551;-69
2022/03/02 10:05:26;;;;;;;19.92;18.10;;;;;;;;;;5072311;28;20286;-70
2022/03/02 10:07:57;;;;;;;21.48;19.17;;;;;;;;;;5061500;28;20040;-70
2022/03/02 10:10:23;;;;;;;20.83;18.70;;;;;;;;;;5072107;28;20040;-70
2022/03/02 10:12:51;;;;;;;19.85;17.77;;;;;;;;;;5071468;28;20506;-70
2022/03/02 10:15:18;;;;;;;20.27;18.05;;;;;;;;;;5075604;28;20043;-70
2022/03/02 10:17:48;;;;;;;20.23;18.08;;;;;;;;;;5083354;28;20040;-70
2022/03/02 10:20:24;;;;;;;20.33;18.38;;;;;;;;;;5077648;28;20028;-70
2022/03/02 10:23:07;;;;;;;21.67;19.48;;;;;;;;;;5071898;28;20040;-70
2022/03/02 10:25:53;;;;;;;22.48;18.80;;;;;;;;;;5073959;28;20068;-70
2022/03/02 10:28:58;;;;;;;20.92;18.83;;;;;;;;;;5075910;28;20259;-70
2022/03/02 10:31:45;;;;;;;21.55;18.55;;;;;;;;;;4969505;28;20057;-70
2022/03/02 10:34:30;;;;;;;21.42;19.23;;;;;;;;;;4975230;28;20646;-70
2022/03/02 10:36:59;;;;;;;21.23;19.02;;;;;;;;;;4988103;28;20038;-70
2022/03/02 10:39:44;;;;;;;24.33;19.33;;;;;;;;;;4969477;28;20046;-70
2022/03/02 10:42:16;;;;;;;21.80;19.52;;;;;;;;;;4960745;28;20569;-70
2022/03/02 10:45:16;;;;;;;23.52;19.20;;;;;;;;;;4986872;28;20210;-70
2022/03/02 10:47:41;;;;;;;21.33;19.02;;;;;;;;;;4974097;28;20098;-70
2022/03/02 10:50:08;;;;;;;21.15;18.67;;;;;;;;;;4978867;28;20038;-70
2022/03/02 10:52:39;;;;;;;21.10;18.88;;;;;;;;;;4985125;28;20107;-70
2022/03/02 10:55:08;;;;;;;35.65;19.88;;;;;;;;;;4980505;28;20063;-70
2022/03/02 10:57:35;;;;;;;21.25;18.95;;;;;;;;;;4968931;28;20042;-70
2022/03/02 11:00:13;;;;;;;21.33;18.73;;;;;;;;;;4968698;28;20089;-70
2022/03/02 11:02:54;;;;;;;22.13;19.58;;;;;;;;;;4986336;28;20532;-69
2022/03/02 11:05:20;;;;;;;24.58;20.63;;;;;;;;;;4977134;28;20031;-69
2022/03/02 11:07:47;;;;;;;23.27;20.40;;;;;;;;;;5023581;28;20059;-70
2022/03/02 11:10:16;;;;;;;50.05;27.80;;;;;;;;;;5067238;28;20441;-70
2022/03/02 11:12:44;;;;;;;21.00;18.95;;;;;;;;;;5080642;28;20105;-70
2022/03/02 11:15:11;;;;;;;21.58;19.00;;;;;;;;;;5079192;28;20028;-69
2022/03/02 11:17:59;;;;;;;24.23;20.40;;;;;;;;;;5070140;28;20047;-70
2022/03/02 11:20:28;;;;;;;21.05;18.80;;;;;;;;;;5070972;28;20043;-69
2022/03/02 11:22:59;;;;;;;28.45;20.92;;;;;;;;;;5081538;28;20612;-69
2022/03/02 11:25:41;;;;;;;26.20;19.65;;;;;;;;;;5090043;28;20028;-70
2022/03/02 11:28:07;;;;;;;19.90;18.05;;;;;;;;;;5090233;28;20031;-69
2022/03/02 11:30:34;;;;;;;24.23;21.40;;;;;;;;;;5073840;28;20399;-69
2022/03/02 11:33:07;;;;;;;22.63;19.02;;;;;;;;;;5084329;28;20043;-69
2022/03/02 11:35:36;;;;;;;21.77;19.23;;;;;;;;;;5069784;28;20036;-71
2022/03/02 11:38:04;;;;;;;23.40;18.48;;;;;;;;;;5069693;28;20467;-70
2022/03/02 11:40:42;;;;;;;21.00;18.80;;;;;;;;;;5085758;28;20197;-70
2022/03/02 11:43:28;;;;;;;20.15;18.15;;;;;;;;;;5076853;28;20180;-70
2022/03/02 11:45:58;;;;;;;21.45;18.35;;;;;;;;;;5089449;28;20724;-70
2022/03/02 11:48:32;;;;;;;21.33;19.02;;;;;;;;;;5069026;28;20067;-70
2022/03/02 11:51:22;;;;;;;23.80;19.40;;;;;;;;;;5069508;28;20032;-70
2022/03/02 11:53:52;;;;;;;21.25;19.02;;;;;;;;;;5089623;28;20036;-70
2022/03/02 11:56:20;;;;;;;22.02;18.25;;;;;;;;;;5084766;28;20284;-70
2022/03/02 11:58:55;;;;;;;20.02;17.92;;;;;;;;;;5063624;28;20043;-70
2022/03/02 12:01:22;;;;;;;20.13;17.98;;;;;;;;;;5070215;28;20063;-70
2022/03/02 12:04:03;;;;;;;18.92;17.20;;;;;;;;;;5079533;28;20079;-70
2022/03/02 12:06:37;;;;;;;23.85;18.48;;;;;;;;;;5074277;28;20037;-70
2022/03/02 12:09:04;;;;;;;20.27;18.13;;;;;;;;;;5073143;28;20512;-69
2022/03/02 12:11:38;;;;;;;19.35;17.55;;;;;;;;;;5068547;28;20040;-69
2022/03/02 12:14:09;;;;;;;19.92;17.85;;;;;;;;;;5068154;28;20089;-69
2022/03/02 12:16:35;;;;;;;19.95;18.02;;;;;;;;;;5067819;28;20036;-70
2022/03/02 12:19:01;;;;;;;20.83;18.55;;;;;;;;;;5065185;28;20522;-70
2022/03/02 12:21:26;;;;;;;20.48;18.05;;;;;;;;;;5068996;28;20044;-70
2022/03/02 12:23:53;;;;;;;19.95;18.02;;;;;;;;;;5067816;28;20455;-70
2022/03/02 12:26:19;;;;;;;20.88;18.77;;;;;;;;;;5065882;28;20107;-70
2022/03/02 12:28:55;;;;;;;21.02;18.90;;;;;;;;;;5069960;28;20140;-70
2022/03/02 12:31:32;;;;;;;23.65;18.83;;;;;;;;;;5078477;28;20055;-69
2022/03/02 12:34:16;;;;;;;21.75;18.70;;;;;;;;;;5067678;28;20067;-70
2022/03/02 12:36:43;;;;;;;21.13;18.75;;;;;;;;;;5069499;28;20050;-70
2022/03/02 12:39:10;;;;;;;20.67;18.25;;;;;;;;;;5088053;28;20191;-70
2022/03/02 12:41:36;;;;;;;21.00;18.90;;;;;;;;;;5088098;28;20067;-70
2022/03/02 12:44:03;;;;;;;21.50;18.30;;;;;;;;;;5077195;28;20032;-69
2022/03/02 12:46:29;;;;;;;20.77;18.55;;;;;;;;;;5087950;28;20066;-70
2022/03/02 12:48:56;;;;;;;20.15;18.20;;;;;;;;;;5050992;28;20041;-70
2022/03/02 12:51:23;;;;;;;20.73;18.67;;;;;;;;;;5071687;28;20090;-70
2022/03/02 12:53:49;;;;;;;20.00;17.70;;;;;;;;;;5076678;28;20373;-69
2022/03/02 12:56:16;;;;;;;21.83;18.38;;;;;;;;;;5067748;28;20051;-71
2022/03/02 12:58:43;;;;;;;20.67;18.52;;;;;;;;;;5067488;28;20523;-70
2022/03/02 13:01:08;;;;;;;24.02;20.08;;;;;;;;;;5063732;28;20064;-70
2022/03/02 13:03:38;;;;;;;22.55;20.17;;;;;;;;;;5085140;28;20067;-70
2022/03/02 13:06:11;;;;;;;22.83;20.33;;;;;;;;;;5069595;28;20398;-70
2022/03/02 13:08:43;;;;;;;21.92;19.60;;;;;;;;;;5066976;28;20035;-70
2022/03/02 13:11:28;;;;;;;22.75;19.75;;;;;;;;;;5075177;28;20036;-70
2022/03/02 13:13:54;;;;;;;23.33;19.73;;;;;;;;;;5067504;28;20032;-70
2022/03/02 13:16:37;;;;;;;23.73;19.73;;;;;;;;;;5067912;28;20062;-70
2022/03/02 13:19:15;;;;;;;23.15;18.98;;;;;;;;;;5069035;28;20028;-70
2022/03/02 13:21:41;;;;;;;21.65;19.10;;;;;;;;;;5076562;28;20075;-70
2022/03/02 13:24:09;;;;;;;23.10;20.50;;;;;;;;;;5067167;28;20105;-70
2022/03/02 13:26:36;;;;;;;22.48;18.05;;;;;;;;;;5067115;28;20040;-70
2022/03/02 13:29:12;;;;;;;20.67;18.38;;;;;;;;;;5068016;28;20040;-70
2022/03/02 13:31:58;;;;;;;20.55;18.48;;;;;;;;;;5049793;28;20338;-70
2022/03/02 13:34:26;;;;;;;19.67;17.70;;;;;;;;;;5069488;28;20403;-70
2022/03/02 13:36:58;;;;;;;21.73;17.73;;;;;;;;;;5079237;28;20035;-70
2022/03/02 13:39:29;;;;;;;18.80;16.60;;;;;;;;;;5075775;28;20032;-70
2022/03/02 13:41:59;;;;;;;18.85;17.05;;;;;;;;;;5072291;28;20714;-70
2022/03/02 13:44:42;;;;;;;18.50;16.75;;;;;;;;;;5071923;28;20036;-70
2022/03/02 13:47:08;;;;;;;20.63;18.52;;;;;;;;;;5076684;28;20035;-70
2022/03/02 13:49:54;;;;;;;20.20;17.95;;;;;;;;;;5090977;28;20085;-69
2022/03/02 13:52:21;;;;;;;20.20;18.15;;;;;;;;;;5063420;28;20079;-69
2022/03/02 13:54:48;;;;;;;20.90;18.35;;;;;;;;;;5079661;28;20399;-69
2022/03/02 13:57:19;;;;;;;21.83;18.13;;;;;;;;;;5071159;28;20188;-69
2022/03/02 13:59:45;;;;;;;20.13;18.13;;;;;;;;;;5051036;28;20470;-70
2022/03/02 14:02:11;;;;;;;20.80;18.00;;;;;;;;;;5063990;28;20135;-70
2022/03/02 14:04:50;;;;;;;19.75;17.65;;;;;;;;;;5073417;28;20398;-69
2022/03/02 14:07:16;;;;;;;19.65;17.63;;;;;;;;;;5063819;28;20399;-69
2022/03/02 14:09:42;;;;;;;19.73;17.65;;;;;;;;;;5071946;28;20028;-69
2022/03/02 14:12:08;;;;;;;21.17;18.05;;;;;;;;;;5078788;28;20044;-68
2022/03/02 14:14:34;;;;;;;22.48;19.17;;;;;;;;;;5072262;28;20040;-68
2022/03/02 14:17:07;;;;;;;21.67;17.48;;;;;;;;;;5062832;28;20272;-68
2022/03/02 14:19:37;;;;;;;19.83;16.95;;;;;;;;;;5068095;28;20078;-68
2022/03/02 14:22:06;;;;;;;20.23;18.20;;;;;;;;;;5062131;28;20115;-68
2022/03/02 14:24:34;;;;;;;22.38;18.40;;;;;;;;;;5068684;28;20070;-68
2022/03/02 14:27:26;;;;;;;20.00;17.85;;;;;;;;;;5068238;28;20041;-69
2022/03/02 14:30:10;;;;;;;28.02;18.67;;;;;;;;;;5069739;28;21118;-69